createdAt,value
2018-03-26T00:01:13.824Z,11.80
2018-03-26T00:03:41.423Z,12.03
2018-03-26T00:06:09.133Z,12.95
2018-03-26T00:08:36.808Z,14.07
2018-03-26T00:11:04.444Z,13.73
2018-03-26T00:13:31.329Z,11.67
2018-03-26T00:15:58.955Z,13.37
2018-03-26T00:18:26.557Z,12.00
2018-03-26T00:23:28.209Z,11.57
2018-03-26T00:25:56.017Z,12.82
2018-03-26T00:28:23.718Z,13.35
2018-03-26T00:30:51.309Z,12.37
2018-03-26T00:33:19.041Z,13.98
2018-03-26T00:35:46.708Z,13.65
2018-03-26T00:38:14.379Z,12.77
2018-03-26T00:40:42.068Z,13.43
2018-03-26T00:43:09.674Z,11.97
2018-03-26T00:45:37.373Z,11.77
2018-03-26T00:48:04.983Z,9.40
2018-03-26T00:50:32.593Z,9.97
2018-03-26T00:53:00.265Z,9.10
2018-03-26T00:55:27.891Z,9.50
2018-03-26T00:57:55.563Z,8.32
2018-03-26T01:00:23.177Z,10.97
2018-03-26T01:02:50.867Z,9.05
2018-03-26T01:05:18.704Z,9.77
2018-03-26T01:07:46.388Z,9.63
2018-03-26T01:10:14.063Z,9.63
2018-03-26T01:12:41.796Z,10.95
2018-03-26T01:15:09.483Z,10.82
2018-03-26T01:17:37.193Z,10.93
2018-03-26T01:20:04.870Z,12.35
2018-03-26T01:22:32.596Z,10.75
2018-03-26T01:25:00.278Z,10.38
2018-03-26T01:27:27.988Z,11.43
2018-03-26T01:29:55.672Z,10.88
2018-03-26T01:32:23.351Z,9.25
2018-03-26T01:34:51.176Z,8.75
2018-03-26T01:37:18.858Z,9.43
2018-03-26T01:39:46.464Z,10.60
2018-03-26T01:42:14.152Z,8.73
2018-03-26T01:44:41.865Z,8.90
2018-03-26T01:47:09.560Z,9.52
2018-03-26T01:49:37.239Z,10.07
2018-03-26T01:52:04.863Z,9.10
2018-03-26T01:54:32.468Z,10.07
2018-03-26T01:57:00.153Z,10.18
2018-03-26T01:59:27.856Z,9.75
2018-03-26T02:01:55.526Z,8.40
2018-03-26T02:04:23.132Z,9.20
2018-03-26T02:06:50.724Z,10.60
2018-03-26T02:09:18.757Z,9.63
2018-03-26T02:11:46.424Z,8.90
2018-03-26T02:14:14.093Z,10.30
2018-03-26T02:16:41.787Z,9.75
2018-03-26T02:19:09.456Z,9.50
2018-03-26T02:21:37.149Z,8.52
2018-03-26T02:24:04.812Z,9.57
2018-03-26T02:26:32.803Z,9.10
2018-03-26T02:29:00.471Z,10.15
2018-03-26T02:31:28.149Z,9.50
2018-03-26T02:33:55.843Z,10.73
2018-03-26T02:36:23.518Z,11.32
2018-03-26T02:38:51.635Z,9.68
2018-03-26T02:41:19.312Z,12.45
2018-03-26T02:43:46.986Z,10.98
2018-03-26T02:46:14.680Z,11.90
2018-03-26T02:48:42.347Z,12.18
2018-03-26T02:51:09.970Z,11.63
2018-03-26T02:53:37.569Z,10.00
2018-03-26T02:56:05.280Z,11.18
2018-03-26T02:58:32.954Z,9.68
2018-03-26T03:01:00.626Z,9.88
2018-03-26T03:03:28.250Z,10.03
2018-03-26T03:05:55.844Z,9.30
2018-03-26T03:08:23.460Z,11.17
2018-03-26T03:10:51.133Z,9.07
2018-03-26T03:13:18.846Z,10.30
2018-03-26T03:15:46.435Z,11.10
2018-03-26T03:18:14.116Z,10.52
2018-03-26T03:20:41.815Z,11.45
2018-03-26T03:23:09.483Z,10.43
2018-03-26T03:25:37.187Z,11.63
2018-03-26T03:28:04.855Z,11.50
2018-03-26T03:30:32.481Z,11.47
2018-03-26T03:33:00.149Z,10.38
2018-03-26T03:35:27.856Z,9.77
2018-03-26T03:37:55.521Z,9.82
2018-03-26T03:40:23.206Z,10.43
2018-03-26T03:42:50.900Z,9.13
2018-03-26T03:45:18.591Z,10.75
2018-03-26T03:47:46.284Z,10.43
2018-03-26T03:50:13.967Z,10.57
2018-03-26T03:52:42.099Z,10.40
2018-03-26T03:55:09.798Z,10.38
2018-03-26T03:57:37.474Z,11.15
2018-03-26T04:00:05.197Z,12.37
2018-03-26T04:02:32.884Z,10.65
2018-03-26T04:05:00.588Z,10.57
2018-03-26T04:07:28.292Z,11.65
2018-03-26T04:09:56.264Z,11.43
2018-03-26T04:12:23.948Z,10.82
2018-03-26T04:14:51.624Z,12.20
2018-03-26T04:17:19.241Z,11.63
2018-03-26T04:19:46.910Z,12.88
2018-03-26T04:22:14.734Z,10.90
2018-03-26T04:24:42.399Z,11.85
2018-03-26T04:27:10.097Z,12.37
2018-03-26T04:29:37.791Z,11.15
2018-03-26T04:32:05.529Z,13.10
2018-03-26T04:34:33.203Z,12.93
2018-03-26T04:37:00.880Z,13.57
2018-03-26T04:39:28.500Z,13.63
2018-03-26T04:41:56.181Z,13.23
2018-03-26T04:44:23.936Z,13.23
2018-03-26T04:46:51.524Z,11.40
2018-03-26T04:49:19.115Z,11.10
2018-03-26T04:51:46.735Z,11.67
2018-03-26T04:54:14.342Z,12.20
2018-03-26T04:56:41.954Z,12.47
2018-03-26T04:59:09.556Z,12.90
2018-03-26T05:01:37.579Z,12.60
2018-03-26T05:04:05.186Z,11.70
2018-03-26T05:09:06.647Z,12.50
2018-03-26T05:11:34.256Z,13.37
2018-03-26T05:14:01.878Z,13.57
2018-03-26T05:16:29.481Z,14.73
2018-03-26T05:18:57.110Z,13.37
2018-03-26T05:21:24.717Z,13.27
2018-03-26T05:23:52.319Z,14.40
2018-03-26T05:26:19.944Z,14.20
2018-03-26T05:28:47.627Z,13.13
2018-03-26T05:31:15.233Z,13.90
2018-03-26T05:33:42.836Z,13.83
2018-03-26T05:36:10.793Z,15.17
2018-03-26T05:38:38.392Z,13.60
2018-03-26T05:41:05.988Z,14.53
2018-03-26T05:43:33.681Z,14.40
2018-03-26T05:46:01.275Z,15.50
2018-03-26T05:48:29.001Z,15.73
2018-03-26T05:50:56.672Z,15.07
2018-03-26T05:53:24.273Z,14.43
2018-03-26T05:55:51.969Z,13.75
2018-03-26T05:58:19.671Z,14.20
2018-03-26T06:00:47.611Z,16.05
2018-03-26T06:03:15.280Z,16.15
2018-03-26T06:05:42.970Z,15.48
2018-03-26T06:08:10.672Z,16.48
2018-03-26T06:10:38.370Z,14.57
2018-03-26T06:13:05.988Z,16.57
2018-03-26T06:15:33.708Z,16.70
2018-03-26T06:18:01.310Z,15.10
2018-03-26T06:20:28.983Z,18.30
2018-03-26T06:22:56.628Z,16.43
2018-03-26T06:25:24.226Z,16.97
2018-03-26T06:27:51.821Z,17.37
2018-03-26T06:30:19.454Z,15.23
2018-03-26T06:32:47.152Z,15.18
2018-03-26T06:35:14.918Z,16.90
2018-03-26T06:37:47.973Z,16.60
2018-03-26T06:40:15.621Z,16.27
2018-03-26T06:42:44.760Z,16.03
2018-03-26T06:45:12.362Z,17.37
2018-03-26T06:47:39.989Z,18.60
2018-03-26T06:50:07.588Z,16.00
2018-03-26T06:52:35.210Z,16.60
2018-03-26T06:55:02.832Z,18.00
2018-03-26T06:57:30.496Z,15.73
2018-03-26T06:59:58.089Z,15.80
2018-03-26T07:02:25.692Z,15.10
2018-03-26T07:04:53.312Z,15.43
2018-03-26T07:07:20.903Z,14.90
2018-03-26T07:09:48.546Z,14.40
2018-03-26T07:12:16.143Z,17.50
2018-03-26T07:14:43.879Z,17.23
2018-03-26T07:17:11.471Z,16.07
2018-03-26T07:19:39.060Z,18.90
2018-03-26T07:22:06.692Z,16.83
2018-03-26T07:24:34.291Z,17.10
2018-03-26T07:27:02.135Z,15.13
2018-03-26T07:29:29.739Z,14.97
2018-03-26T07:31:57.348Z,16.73
2018-03-26T07:34:24.969Z,16.03
2018-03-26T07:36:52.555Z,16.17
2018-03-26T07:39:20.182Z,16.60
2018-03-26T07:41:47.767Z,15.43
2018-03-26T07:44:15.559Z,18.13
2018-03-26T07:46:43.169Z,18.47
2018-03-26T07:49:10.769Z,20.13
2018-03-26T07:51:38.390Z,18.87
2018-03-26T07:54:06.117Z,20.40
2018-03-26T07:56:33.829Z,21.33
2018-03-26T07:59:01.863Z,19.27
2018-03-26T08:01:29.927Z,20.52
2018-03-26T08:03:57.593Z,19.52
2018-03-26T08:06:25.180Z,21.23
2018-03-26T08:08:52.871Z,20.45
2018-03-26T08:11:20.553Z,19.12
2018-03-26T08:13:48.249Z,18.67
2018-03-26T08:16:15.908Z,19.70
2018-03-26T08:18:43.763Z,20.40
2018-03-26T08:21:11.377Z,20.43
2018-03-26T08:23:38.963Z,18.20
2018-03-26T08:26:06.588Z,19.33
2018-03-26T08:28:34.171Z,20.70
2018-03-26T08:31:01.798Z,20.83
2018-03-26T08:33:29.414Z,20.47
2018-03-26T08:35:57.212Z,20.00
2018-03-26T08:38:24.825Z,19.50
2018-03-26T08:40:52.469Z,20.40
2018-03-26T08:43:20.060Z,19.20
2018-03-26T08:45:47.700Z,18.27
2018-03-26T08:48:15.316Z,20.87
2018-03-26T08:50:43.102Z,21.40
2018-03-26T08:53:11.056Z,20.50
2018-03-26T08:55:38.647Z,20.90
2018-03-26T08:58:06.249Z,21.20
2018-03-26T09:00:33.868Z,22.40
2018-03-26T09:03:01.497Z,23.20
2018-03-26T09:05:29.115Z,22.50
2018-03-26T09:07:56.720Z,21.30
2018-03-26T09:10:24.380Z,21.60
2018-03-26T09:12:51.979Z,22.00
2018-03-26T09:15:20.030Z,21.77
2018-03-26T09:17:48.004Z,23.40
2018-03-26T09:20:15.666Z,23.00
2018-03-26T09:22:43.278Z,23.67
2018-03-26T09:25:10.877Z,23.40
2018-03-26T09:27:38.825Z,22.10
2018-03-26T09:30:06.446Z,22.97
2018-03-26T09:32:34.881Z,21.77
2018-03-26T09:35:02.544Z,24.50
2018-03-26T09:37:30.159Z,24.20
2018-03-26T09:39:57.789Z,24.37
2018-03-26T09:42:25.388Z,21.77
2018-03-26T09:44:53.520Z,22.43
2018-03-26T09:47:21.490Z,22.40
2018-03-26T09:49:49.089Z,23.90
2018-03-26T09:52:16.717Z,25.27
2018-03-26T09:54:44.316Z,25.10
2018-03-26T09:57:11.959Z,24.80
2018-03-26T09:59:39.580Z,22.40
2018-03-26T10:02:07.206Z,27.23
2018-03-26T10:04:34.816Z,23.93
2018-03-26T10:07:02.664Z,24.53
2018-03-26T10:09:30.263Z,22.90
2018-03-26T10:11:57.867Z,23.57
2018-03-26T10:14:25.721Z,23.20
2018-03-26T10:16:53.571Z,25.07
2018-03-26T10:19:21.196Z,23.00
2018-03-26T10:21:48.799Z,25.63
2018-03-26T10:24:16.467Z,24.17
2018-03-26T10:26:44.067Z,27.23
2018-03-26T10:29:11.707Z,24.40
2018-03-26T10:31:39.299Z,27.80
2018-03-26T10:34:06.919Z,24.60
2018-03-26T10:36:34.540Z,26.50
2018-03-26T10:39:02.138Z,26.83
2018-03-26T10:41:29.756Z,24.77
2018-03-26T10:43:57.812Z,26.80
2018-03-26T10:46:25.748Z,28.43
2018-03-26T10:48:53.339Z,27.27
2018-03-26T10:51:20.940Z,28.37
2018-03-26T10:53:48.556Z,26.27
2018-03-26T10:56:16.172Z,26.37
2018-03-26T10:58:43.789Z,28.10
2018-03-26T11:01:11.405Z,27.80
2018-03-26T11:03:39.043Z,28.57
2018-03-26T11:06:06.900Z,29.43
2018-03-26T11:08:34.801Z,30.03
2018-03-26T11:11:02.773Z,28.47
2018-03-26T11:13:31.110Z,29.73
2018-03-26T11:15:59.183Z,28.00
2018-03-26T11:18:27.054Z,26.40
2018-03-26T11:20:55.293Z,31.37
2018-03-26T11:23:23.191Z,30.50
2018-03-26T11:25:51.056Z,31.30
2018-03-26T11:28:19.130Z,29.30
2018-03-26T11:30:46.975Z,27.77
2018-03-26T11:33:14.604Z,28.43
2018-03-26T11:35:43.137Z,32.20
2018-03-26T11:38:10.796Z,27.60
2018-03-26T11:40:38.431Z,32.13
2018-03-26T11:43:06.028Z,30.70
2018-03-26T11:45:33.994Z,33.60
2018-03-26T11:48:01.862Z,31.20
2018-03-26T11:50:29.517Z,29.63
2018-03-26T11:52:57.144Z,29.10
2018-03-26T11:55:24.759Z,29.60
2018-03-26T11:57:52.364Z,31.70
2018-03-26T12:00:20.003Z,29.30
2018-03-26T12:02:47.849Z,31.07
2018-03-26T12:05:16.547Z,30.70
2018-03-26T12:07:44.134Z,30.90
2018-03-26T12:10:11.732Z,32.93
2018-03-26T12:12:39.356Z,33.23
2018-03-26T12:15:06.956Z,30.40
2018-03-26T12:17:34.597Z,33.37
2018-03-26T12:20:14.769Z,33.33
2018-03-26T12:22:42.913Z,29.40
2018-03-26T12:25:13.235Z,29.30
2018-03-26T12:27:52.824Z,32.70
2018-03-26T12:30:20.431Z,30.70
2018-03-26T12:32:48.027Z,30.30
2018-03-26T12:35:27.457Z,32.13
2018-03-26T12:37:55.062Z,30.13
2018-03-26T12:40:34.496Z,30.00
2018-03-26T12:43:02.116Z,31.57
2018-03-26T12:45:41.910Z,31.70
2018-03-26T12:48:09.497Z,31.10
2018-03-26T12:50:49.199Z,30.60
2018-03-26T12:53:17.067Z,30.30
2018-03-26T12:55:44.663Z,31.23
2018-03-26T12:58:24.076Z,29.87
2018-03-26T13:01:03.696Z,29.87
2018-03-26T13:03:31.325Z,28.93
2018-03-26T13:05:59.102Z,32.50
2018-03-26T13:08:26.888Z,31.10
2018-03-26T13:10:54.479Z,29.80
2018-03-26T13:13:22.070Z,29.23
2018-03-26T13:15:49.704Z,31.63
2018-03-26T13:18:17.300Z,33.13
2018-03-26T13:20:45.275Z,30.77
2018-03-26T13:23:13.900Z,33.90
2018-03-26T13:25:41.763Z,32.47
2018-03-26T13:28:09.635Z,30.20
2018-03-26T13:30:37.603Z,32.00
2018-03-26T13:33:05.200Z,33.30
2018-03-26T13:35:32.797Z,28.87
2018-03-26T13:38:00.801Z,28.87
2018-03-26T13:40:28.763Z,29.27
2018-03-26T13:42:56.822Z,29.70
2018-03-26T13:45:25.108Z,29.87
2018-03-26T13:47:52.700Z,28.33
2018-03-26T13:50:20.733Z,30.30
2018-03-26T13:52:48.711Z,29.93
2018-03-26T13:55:16.331Z,27.90
2018-03-26T13:57:43.936Z,28.80
2018-03-26T14:00:11.576Z,26.83
2018-03-26T14:02:39.168Z,26.77
2018-03-26T14:05:06.772Z,25.37
2018-03-26T14:07:34.395Z,24.40
2018-03-26T14:10:13.792Z,23.67
2018-03-26T14:12:53.344Z,26.30
2018-03-26T14:15:32.701Z,23.87
2018-03-26T14:18:01.101Z,21.50
2018-03-26T14:20:29.046Z,21.57
2018-03-26T14:22:57.019Z,23.10
2018-03-26T14:25:24.639Z,25.10
2018-03-26T14:27:52.233Z,19.17
2018-03-26T14:30:19.845Z,20.83
2018-03-26T14:32:47.476Z,20.47
2018-03-26T14:38:29.361Z,20.90
2018-03-26T14:40:56.970Z,19.80
2018-03-26T14:43:24.588Z,25.33
2018-03-26T14:45:52.226Z,23.57
2018-03-26T14:48:20.042Z,25.10
2018-03-26T14:50:47.995Z,24.80
2018-03-26T14:53:15.967Z,26.17
2018-03-26T14:55:43.561Z,24.13
2018-03-26T14:58:11.152Z,24.47
2018-03-26T15:00:38.937Z,22.30
2018-03-26T15:03:06.541Z,23.97
2018-03-26T15:05:34.125Z,25.73
2018-03-26T15:08:01.748Z,22.53
2018-03-26T15:10:29.363Z,20.20
2018-03-26T15:12:56.963Z,20.93
2018-03-26T15:15:24.595Z,21.90
2018-03-26T15:17:52.272Z,23.60
2018-03-26T15:20:20.170Z,21.67
2018-03-26T15:22:48.051Z,20.93
2018-03-26T15:25:15.645Z,22.73
2018-03-26T15:27:43.331Z,21.63
2018-03-26T15:30:10.954Z,22.23
2018-03-26T15:32:38.543Z,24.53
2018-03-26T15:35:06.130Z,25.60
2018-03-26T15:37:33.766Z,26.23
2018-03-26T15:40:01.360Z,23.70
2018-03-26T15:42:29.043Z,21.90
2018-03-26T15:44:56.668Z,21.20
2018-03-26T15:47:24.280Z,22.77
2018-03-26T15:49:52.432Z,22.67
2018-03-26T15:52:20.378Z,22.17
2018-03-26T15:54:47.988Z,23.40
2018-03-26T15:57:15.576Z,22.53
2018-03-26T15:59:43.456Z,23.50
2018-03-26T16:02:15.314Z,22.33
2018-03-26T16:04:42.928Z,22.50
2018-03-26T16:07:10.640Z,21.93
2018-03-26T16:09:38.242Z,22.23
2018-03-26T16:12:05.847Z,23.00
2018-03-26T16:14:33.476Z,22.20
2018-03-26T16:17:01.081Z,22.20
2018-03-26T16:19:28.748Z,23.43
2018-03-26T16:21:56.386Z,25.10
2018-03-26T16:24:23.984Z,23.67
2018-03-26T16:26:51.580Z,22.87
2018-03-26T16:29:19.214Z,25.33
2018-03-26T16:31:46.812Z,22.30
2018-03-26T16:34:14.520Z,25.07
2018-03-26T16:36:42.142Z,22.07
2018-03-26T16:39:09.741Z,23.17
2018-03-26T16:41:47.390Z,22.50
2018-03-26T16:44:14.987Z,24.20
2018-03-26T16:46:42.588Z,22.30
2018-03-26T16:49:10.213Z,22.50
2018-03-26T16:51:37.803Z,23.07
2018-03-26T16:54:05.405Z,24.00
2018-03-26T16:56:33.040Z,23.30
2018-03-26T16:59:00.637Z,25.27
2018-03-26T17:01:28.326Z,29.47
2018-03-26T17:03:55.982Z,24.30
2018-03-26T17:06:23.659Z,25.00
2018-03-26T17:08:51.319Z,28.47
2018-03-26T17:11:18.951Z,27.93
2018-03-26T17:13:46.540Z,25.67
2018-03-26T17:16:14.136Z,26.30
2018-03-26T17:18:41.788Z,24.93
2018-03-26T17:21:09.430Z,27.20
2018-03-26T17:23:36.979Z,27.57
2018-03-26T17:26:04.618Z,29.00
2018-03-26T17:28:32.204Z,25.93
2018-03-26T17:30:59.804Z,26.93
2018-03-26T17:33:27.424Z,27.43
2018-03-26T17:35:55.028Z,25.90
2018-03-26T17:38:22.620Z,27.90
2018-03-26T17:40:50.239Z,24.70
2018-03-26T17:43:17.848Z,27.33
2018-03-26T17:45:45.444Z,25.90
2018-03-26T17:48:13.086Z,23.10
2018-03-26T17:50:40.688Z,25.10
2018-03-26T17:53:08.611Z,25.57
2018-03-26T17:55:36.241Z,27.33
2018-03-26T17:58:03.860Z,27.40
2018-03-26T18:00:31.469Z,26.77
2018-03-26T18:02:59.101Z,28.40
2018-03-26T18:05:26.696Z,27.90
2018-03-26T18:07:54.296Z,29.47
2018-03-26T18:10:22.054Z,30.27
2018-03-26T18:12:49.651Z,28.90
2018-03-26T18:15:17.268Z,29.27
2018-03-26T18:17:44.888Z,29.90
2018-03-26T18:20:12.490Z,29.30
2018-03-26T18:22:40.093Z,29.67
2018-03-26T18:25:07.783Z,31.10
2018-03-26T18:27:35.378Z,31.07
2018-03-26T18:30:02.985Z,32.07
2018-03-26T18:32:30.615Z,31.03
2018-03-26T18:34:58.212Z,29.90
2018-03-26T18:37:25.806Z,29.20
2018-03-26T18:39:53.428Z,30.70
2018-03-26T18:42:21.024Z,32.93
2018-03-26T18:44:48.615Z,29.53
2018-03-26T18:47:16.251Z,33.07
2018-03-26T18:49:43.873Z,30.90
2018-03-26T18:52:11.495Z,35.50
2018-03-26T18:54:39.123Z,30.93
2018-03-26T18:57:06.711Z,32.77
2018-03-26T18:59:34.300Z,34.20
2018-03-26T19:02:01.941Z,31.40
2018-03-26T19:04:29.537Z,29.47
2018-03-26T19:06:57.124Z,27.30
2018-03-26T19:09:24.762Z,30.13
2018-03-26T19:11:52.365Z,28.70
2018-03-26T19:14:19.964Z,28.80
2018-03-26T19:16:47.651Z,32.07
2018-03-26T19:19:15.220Z,29.77
2018-03-26T19:21:42.816Z,32.87
2018-03-26T19:24:10.442Z,31.27
2018-03-26T19:26:38.036Z,29.87
2018-03-26T19:29:05.652Z,30.93
2018-03-26T19:31:33.287Z,26.57
2018-03-26T19:34:00.880Z,29.73
2018-03-26T19:36:28.776Z,30.73
2018-03-26T19:38:56.408Z,31.60
2018-03-26T19:41:24.000Z,32.20
2018-03-26T19:43:51.605Z,30.63
2018-03-26T19:46:19.280Z,31.97
2018-03-26T19:48:46.907Z,29.03
2018-03-26T19:51:14.507Z,32.00
2018-03-26T19:53:42.137Z,31.93
2018-03-26T19:56:09.875Z,31.13
2018-03-26T19:58:37.458Z,32.70
2018-03-26T20:01:05.218Z,30.30
2018-03-26T20:03:32.888Z,33.13
2018-03-26T20:06:00.485Z,29.67
2018-03-26T20:08:28.114Z,30.27
2018-03-26T20:10:55.711Z,32.93
2018-03-26T20:13:23.299Z,33.10
2018-03-26T20:15:50.928Z,33.43
2018-03-26T20:18:18.519Z,32.10
2018-03-26T20:20:46.112Z,31.33
2018-03-26T20:23:13.791Z,34.50
2018-03-26T20:25:41.372Z,34.63
2018-03-26T20:28:08.968Z,36.57
2018-03-26T20:30:36.588Z,37.17
2018-03-26T20:33:04.327Z,36.37
2018-03-26T20:35:31.921Z,33.70
2018-03-26T20:37:59.551Z,33.63
2018-03-26T20:40:27.152Z,32.93
2018-03-26T20:42:54.754Z,32.80
2018-03-26T20:45:22.408Z,34.27
2018-03-26T20:47:49.999Z,33.77
2018-03-26T20:50:17.600Z,33.60
2018-03-26T20:52:45.223Z,34.30
2018-03-26T20:55:12.875Z,35.33
2018-03-26T20:57:40.525Z,31.00
2018-03-26T21:00:09.108Z,31.00
2018-03-26T21:02:36.707Z,28.83
2018-03-26T21:05:04.326Z,31.03
2018-03-26T21:07:32.065Z,32.87
2018-03-26T21:09:59.745Z,30.53
2018-03-26T21:12:27.473Z,30.90
2018-03-26T21:14:55.105Z,31.90
2018-03-26T21:17:22.697Z,29.47
2018-03-26T21:19:50.308Z,31.33
2018-03-26T21:22:17.932Z,30.80
2018-03-26T21:24:45.532Z,30.33
2018-03-26T21:27:13.135Z,31.30
2018-03-26T21:29:40.767Z,30.60
2018-03-26T21:32:08.371Z,33.07
2018-03-26T21:34:35.968Z,30.90
2018-03-26T21:37:03.620Z,29.93
2018-03-26T21:39:31.226Z,29.83
2018-03-26T21:41:58.819Z,29.83
2018-03-26T21:44:26.454Z,30.37
2018-03-26T21:46:54.068Z,29.63
2018-03-26T21:49:21.676Z,28.87
2018-03-26T21:51:49.309Z,31.23
2018-03-26T21:54:16.904Z,29.30
2018-03-26T21:56:44.496Z,31.67
2018-03-26T21:59:12.123Z,31.03
2018-03-26T22:01:39.733Z,29.37
2018-03-26T22:04:07.324Z,27.77
2018-03-26T22:06:34.954Z,32.60
2018-03-26T22:09:02.585Z,28.87
2018-03-26T22:11:30.176Z,29.10
2018-03-26T22:13:57.831Z,29.53
2018-03-26T22:16:25.429Z,31.00
2018-03-26T22:18:53.796Z,29.57
2018-03-26T22:21:21.426Z,28.73
2018-03-26T22:23:49.090Z,27.57
2018-03-26T22:26:16.684Z,30.43
2018-03-26T22:28:44.328Z,29.13
2018-03-26T22:31:11.949Z,27.73
2018-03-26T22:33:39.540Z,28.83
2018-03-26T22:36:07.179Z,28.30
2018-03-26T22:38:34.781Z,29.80
2018-03-26T22:41:02.374Z,27.40
2018-03-26T22:43:29.992Z,25.57
2018-03-26T22:45:57.600Z,26.73
2018-03-26T22:48:25.187Z,27.63
2018-03-26T22:50:52.986Z,24.80
2018-03-26T22:53:20.604Z,26.60
2018-03-26T22:55:48.224Z,25.37
2018-03-26T22:58:15.872Z,26.57
2018-03-26T23:00:43.460Z,24.50
2018-03-26T23:03:11.044Z,25.83
2018-03-26T23:05:38.664Z,24.77
2018-03-26T23:08:06.247Z,26.10
2018-03-26T23:10:33.849Z,23.40
2018-03-26T23:13:01.476Z,25.73
2018-03-26T23:15:29.073Z,26.00
2018-03-26T23:17:56.669Z,27.20
2018-03-26T23:20:24.651Z,26.10
2018-03-26T23:22:52.248Z,27.43
2018-03-26T23:25:19.845Z,26.23
2018-03-26T23:27:47.475Z,27.10
2018-03-26T23:30:15.100Z,25.07
2018-03-26T23:32:42.764Z,24.50
2018-03-26T23:35:10.383Z,27.20
2018-03-26T23:37:37.976Z,26.27
2018-03-26T23:40:05.571Z,25.53
2018-03-26T23:42:33.219Z,27.57
2018-03-26T23:45:00.815Z,25.50
2018-03-26T23:47:28.427Z,26.90
2018-03-26T23:49:56.076Z,25.53
2018-03-26T23:52:23.673Z,25.73
2018-03-26T23:54:51.277Z,26.13
2018-03-26T23:57:18.913Z,26.80
2018-03-26T23:59:46.518Z,24.50
